createdAt,value
2023-02-11T00:00:32.262Z,6.02
2023-02-11T00:02:58.595Z,6.03
2023-02-11T00:05:24.967Z,6.00
2023-02-11T00:07:51.373Z,6.02
2023-02-11T00:10:17.678Z,5.99
2023-02-11T00:12:45.363Z,5.93
2023-02-11T00:15:11.644Z,5.92
2023-02-11T00:17:37.951Z,5.92
2023-02-11T00:20:07.184Z,5.90
2023-02-11T00:22:34.424Z,5.84
2023-02-11T00:25:00.742Z,5.82
2023-02-11T00:27:27.059Z,5.79
2023-02-11T00:29:54.861Z,5.81
2023-02-11T00:32:21.190Z,5.78
2023-02-11T00:34:47.582Z,5.75
2023-02-11T00:37:14.039Z,5.71
2023-02-11T00:39:40.378Z,5.70
2023-02-11T00:42:06.728Z,5.73
2023-02-11T00:44:33.142Z,5.73
2023-02-11T00:47:00.806Z,5.75
2023-02-11T00:49:27.223Z,5.77
2023-02-11T00:51:53.505Z,5.75
2023-02-11T00:54:19.814Z,5.71
2023-02-11T00:56:46.124Z,5.74
2023-02-11T00:59:12.469Z,5.73
2023-02-11T01:01:38.853Z,5.75
2023-02-11T01:04:06.547Z,5.75
2023-02-11T01:06:32.980Z,5.77
2023-02-11T01:08:59.270Z,5.86
2023-02-11T01:11:25.581Z,5.82
2023-02-11T01:13:51.904Z,5.86
2023-02-11T01:16:19.339Z,5.85
2023-02-11T01:18:46.026Z,5.88
2023-02-11T01:21:13.673Z,5.88
2023-02-11T01:23:40.074Z,5.87
2023-02-11T01:26:06.349Z,5.95
2023-02-11T01:28:32.767Z,6.02
2023-02-11T01:31:00.172Z,5.97
2023-02-11T01:33:26.535Z,6.05
2023-02-11T01:35:53.102Z,6.05
2023-02-11T01:38:22.449Z,6.00
2023-02-11T01:40:49.338Z,6.07
2023-02-11T01:43:15.651Z,6.04
2023-02-11T01:45:53.329Z,6.08
2023-02-11T01:48:22.279Z,6.04
2023-02-11T01:50:50.897Z,6.01
2023-02-11T01:53:17.769Z,6.05
2023-02-11T01:55:45.451Z,6.03
2023-02-11T01:58:11.796Z,6.04
2023-02-11T02:00:38.749Z,6.03
2023-02-11T02:03:07.282Z,6.04
2023-02-11T02:05:36.037Z,6.02
2023-02-11T02:08:05.662Z,6.03
2023-02-11T02:10:33.970Z,5.99
2023-02-11T02:13:01.630Z,5.98
2023-02-11T02:15:29.398Z,5.97
2023-02-11T02:18:13.615Z,5.97
2023-02-11T02:21:02.468Z,5.96
2023-02-11T02:23:35.408Z,5.98
2023-02-11T02:26:20.363Z,6.02
2023-02-11T02:29:06.780Z,5.95
2023-02-11T02:31:41.765Z,6.01
2023-02-11T02:34:12.846Z,5.99
2023-02-11T02:36:43.747Z,5.97
2023-02-11T02:39:12.000Z,6.00
2023-02-11T02:41:39.299Z,5.96
2023-02-11T02:44:07.243Z,5.98
2023-02-11T02:46:34.028Z,5.94
2023-02-11T02:49:01.015Z,5.98
2023-02-11T02:51:36.115Z,5.98
2023-02-11T02:54:13.869Z,6.02
2023-02-11T02:56:44.974Z,6.01
2023-02-11T02:59:18.631Z,6.02
2023-02-11T03:01:50.785Z,6.02
2023-02-11T03:04:20.914Z,6.01
2023-02-11T03:06:53.373Z,6.02
2023-02-11T03:09:21.810Z,6.03
2023-02-11T03:11:48.194Z,6.10
2023-02-11T03:14:16.914Z,6.07
2023-02-11T03:16:43.976Z,6.04
2023-02-11T03:19:12.843Z,6.05
2023-02-11T03:21:40.730Z,6.06
2023-02-11T03:24:10.461Z,6.05
2023-02-11T03:26:38.761Z,6.04
2023-02-11T03:29:09.879Z,6.03
2023-02-11T03:31:40.027Z,6.05
2023-02-11T03:34:08.574Z,6.07
2023-02-11T03:36:38.886Z,6.02
2023-02-11T03:39:05.989Z,6.09
2023-02-11T03:41:34.626Z,6.04
2023-02-11T03:44:02.169Z,6.02
2023-02-11T03:46:30.840Z,6.02
2023-02-11T03:48:59.651Z,6.03
2023-02-11T03:51:27.431Z,6.06
2023-02-11T03:53:55.523Z,6.02
2023-02-11T03:56:23.466Z,6.01
2023-02-11T03:58:51.080Z,6.04
2023-02-11T04:01:17.487Z,6.03
2023-02-11T04:03:43.835Z,6.05
2023-02-11T04:06:10.125Z,6.09
2023-02-11T04:08:36.427Z,6.08
2023-02-11T04:11:02.823Z,6.08
2023-02-11T04:13:29.187Z,6.11
2023-02-11T04:15:56.901Z,6.12
2023-02-11T04:18:23.305Z,6.13
2023-02-11T04:20:50.603Z,6.15
2023-02-11T04:23:16.927Z,6.12
2023-02-11T04:25:43.263Z,6.07
2023-02-11T04:28:09.606Z,6.08
2023-02-11T04:30:35.918Z,6.07
2023-02-11T04:33:03.626Z,6.09
2023-02-11T04:35:29.955Z,6.12
2023-02-11T04:37:56.302Z,6.12
2023-02-11T04:40:22.854Z,6.09
2023-02-11T04:42:49.193Z,6.13
2023-02-11T04:45:15.522Z,6.13
2023-02-11T04:47:41.858Z,6.17
2023-02-11T04:50:09.758Z,6.11
2023-02-11T04:52:36.080Z,6.10
2023-02-11T04:55:02.395Z,6.15
2023-02-11T04:57:28.715Z,6.13
2023-02-11T04:59:55.051Z,6.19
2023-02-11T05:02:21.359Z,6.20
2023-02-11T05:04:47.766Z,6.19
2023-02-11T05:07:15.392Z,6.16
2023-02-11T05:09:41.782Z,6.16
2023-02-11T05:12:08.585Z,6.16
2023-02-11T05:14:34.899Z,6.19
2023-02-11T05:17:01.244Z,6.16
2023-02-11T05:19:27.568Z,6.15
2023-02-11T05:22:02.487Z,6.16
2023-02-11T05:24:31.379Z,6.15
2023-02-11T05:26:57.712Z,6.15
2023-02-11T05:29:23.996Z,6.13
2023-02-11T05:31:50.295Z,6.13
2023-02-11T05:34:16.607Z,6.16
2023-02-11T05:36:42.908Z,6.16
2023-02-11T05:39:09.205Z,6.15
2023-02-11T05:41:36.863Z,6.17
2023-02-11T05:44:03.207Z,6.16
2023-02-11T05:46:29.661Z,6.18
2023-02-11T05:48:55.969Z,6.16
2023-02-11T05:51:22.450Z,6.15
2023-02-11T05:53:48.770Z,6.15
2023-02-11T05:56:15.253Z,6.14
2023-02-11T05:58:43.000Z,6.13
2023-02-11T06:01:09.351Z,6.17
2023-02-11T06:03:35.654Z,6.14
2023-02-11T06:06:02.014Z,6.16
2023-02-11T06:08:28.320Z,6.15
2023-02-11T06:10:54.668Z,6.16
2023-02-11T06:13:20.963Z,6.17
2023-02-11T06:15:56.457Z,6.16
2023-02-11T06:18:22.950Z,6.17
2023-02-11T06:20:49.298Z,6.18
2023-02-11T06:23:15.701Z,6.20
2023-02-11T06:25:42.017Z,6.17
2023-02-11T06:28:08.377Z,6.18
2023-02-11T06:30:35.915Z,6.16
2023-02-11T06:33:03.727Z,6.17
2023-02-11T06:35:30.411Z,6.18
2023-02-11T06:37:56.747Z,6.18
2023-02-11T06:40:23.056Z,6.15
2023-02-11T06:42:49.417Z,6.18
2023-02-11T06:45:15.825Z,6.18
2023-02-11T06:47:42.111Z,6.25
2023-02-11T06:50:11.825Z,6.21
2023-02-11T06:52:38.167Z,6.17
2023-02-11T06:55:04.691Z,6.24
2023-02-11T06:57:31.118Z,6.22
2023-02-11T06:59:57.444Z,6.21
2023-02-11T07:02:23.748Z,6.20
2023-02-11T07:04:50.220Z,6.28
2023-02-11T07:07:17.852Z,6.25
2023-02-11T07:09:44.298Z,6.29
2023-02-11T07:12:10.637Z,6.35
2023-02-11T07:14:36.962Z,6.33
2023-02-11T07:17:03.316Z,6.30
2023-02-11T07:19:29.618Z,6.32
2023-02-11T07:21:55.946Z,6.34
2023-02-11T07:24:23.579Z,6.34
2023-02-11T07:26:49.911Z,6.35
2023-02-11T07:29:16.220Z,6.47
2023-02-11T07:31:42.663Z,6.48
2023-02-11T07:34:10.390Z,6.42
2023-02-11T07:36:36.909Z,6.46
2023-02-11T07:39:03.714Z,6.41
2023-02-11T07:41:31.387Z,6.43
2023-02-11T07:43:57.724Z,6.45
2023-02-11T07:46:24.910Z,6.42
2023-02-11T07:48:51.581Z,6.60
2023-02-11T07:51:19.018Z,6.47
2023-02-11T07:53:45.849Z,6.53
2023-02-11T07:56:13.349Z,6.55
2023-02-11T07:58:41.446Z,6.61
2023-02-11T08:01:09.655Z,6.59
2023-02-11T08:03:36.869Z,6.63
2023-02-11T08:06:03.821Z,6.61
2023-02-11T08:08:30.182Z,6.56
2023-02-11T08:10:56.500Z,6.64
2023-02-11T08:13:22.797Z,6.62
2023-02-11T08:15:50.731Z,6.61
2023-02-11T08:18:17.237Z,6.64
2023-02-11T08:20:43.533Z,6.68
2023-02-11T08:23:10.104Z,6.63
2023-02-11T08:25:36.444Z,6.67
2023-02-11T08:28:02.766Z,6.69
2023-02-11T08:30:29.109Z,6.65
2023-02-11T08:32:56.772Z,6.68
2023-02-11T08:35:23.082Z,6.67
2023-02-11T08:37:49.366Z,6.73
2023-02-11T08:40:15.844Z,6.69
2023-02-11T08:42:42.135Z,6.74
2023-02-11T08:45:08.667Z,6.72
2023-02-11T08:47:34.967Z,6.71
2023-02-11T08:50:03.333Z,6.71
2023-02-11T08:52:29.623Z,6.72
2023-02-11T08:54:56.096Z,6.73
2023-02-11T08:57:22.412Z,6.77
2023-02-11T08:59:48.732Z,6.80
2023-02-11T09:02:15.207Z,6.83
2023-02-11T09:04:41.540Z,6.83
2023-02-11T09:07:09.207Z,6.86
2023-02-11T09:09:35.574Z,6.87
2023-02-11T09:12:01.869Z,6.89
2023-02-11T09:14:28.557Z,6.91
2023-02-11T09:16:54.924Z,6.97
2023-02-11T09:19:21.261Z,6.99
2023-02-11T09:21:47.612Z,6.97
2023-02-11T09:24:15.489Z,6.97
2023-02-11T09:26:42.392Z,6.94
2023-02-11T09:29:08.883Z,6.95
2023-02-11T09:31:35.343Z,7.01
2023-02-11T09:34:02.725Z,7.02
2023-02-11T09:36:29.927Z,7.00
2023-02-11T09:38:57.756Z,7.03
2023-02-11T09:41:37.604Z,7.10
2023-02-11T09:44:05.984Z,7.07
2023-02-11T09:46:33.161Z,7.10
2023-02-11T09:49:00.015Z,7.09
2023-02-11T09:51:30.075Z,7.13
2023-02-11T09:54:00.407Z,7.18
2023-02-11T09:56:28.108Z,7.18
2023-02-11T09:58:55.747Z,7.22
2023-02-11T10:01:27.909Z,7.22
2023-02-11T10:04:00.170Z,7.28
2023-02-11T10:06:34.252Z,7.23
2023-02-11T10:09:06.021Z,7.22
2023-02-11T10:11:38.175Z,7.27
2023-02-11T10:14:12.129Z,7.30
2023-02-11T10:16:46.776Z,7.29
2023-02-11T10:19:26.419Z,7.29
2023-02-11T10:21:58.835Z,7.32
2023-02-11T10:24:25.195Z,7.38
2023-02-11T10:26:51.783Z,7.44
2023-02-11T10:29:26.996Z,7.43
2023-02-11T10:31:54.938Z,7.43
2023-02-11T10:34:22.869Z,7.44
2023-02-11T10:36:49.198Z,7.47
2023-02-11T10:39:17.068Z,7.54
2023-02-11T10:41:44.360Z,7.56
2023-02-11T10:44:18.265Z,7.60
2023-02-11T10:46:45.964Z,7.62
2023-02-11T10:49:32.647Z,7.65
2023-02-11T10:52:12.044Z,7.67
2023-02-11T10:54:38.339Z,7.71
2023-02-11T10:57:04.726Z,7.74
2023-02-11T10:59:32.973Z,7.76
2023-02-11T11:02:02.064Z,7.81
2023-02-11T11:04:34.439Z,7.79
2023-02-11T11:07:10.718Z,7.85
2023-02-11T11:09:43.435Z,7.83
2023-02-11T11:12:23.664Z,7.81
2023-02-11T11:14:53.738Z,7.85
2023-02-11T11:17:21.525Z,7.92
2023-02-11T11:19:47.888Z,7.89
2023-02-11T11:22:20.337Z,7.86
2023-02-11T11:24:46.781Z,7.92
2023-02-11T11:27:17.724Z,7.97
2023-02-11T11:29:45.967Z,7.92
2023-02-11T11:32:15.701Z,7.91
2023-02-11T11:34:48.251Z,7.94
2023-02-11T11:37:19.251Z,7.97
2023-02-11T11:39:48.654Z,8.03
2023-02-11T11:42:25.582Z,8.01
2023-02-11T11:44:56.731Z,8.04
2023-02-11T11:47:26.939Z,8.12
2023-02-11T11:50:11.396Z,8.12
2023-02-11T11:52:41.193Z,8.17
2023-02-11T11:55:14.116Z,8.21
2023-02-11T11:57:40.704Z,8.23
2023-02-11T12:00:13.847Z,8.24
2023-02-11T12:02:49.691Z,8.26
2023-02-11T12:05:23.265Z,8.26
2023-02-11T12:07:56.374Z,8.25
2023-02-11T12:10:27.774Z,8.24
2023-02-11T12:12:58.702Z,8.26
2023-02-11T12:15:31.061Z,8.28
2023-02-11T12:18:06.395Z,8.28
2023-02-11T12:20:39.367Z,8.34
2023-02-11T12:23:18.124Z,8.35
2023-02-11T12:25:47.648Z,8.43
2023-02-11T12:28:25.120Z,8.50
2023-02-11T12:31:03.002Z,8.55
2023-02-11T12:33:37.188Z,8.52
2023-02-11T12:36:11.316Z,8.53
2023-02-11T12:38:47.512Z,8.55
2023-02-11T12:41:18.272Z,8.57
2023-02-11T12:43:44.860Z,8.58
2023-02-11T12:46:29.843Z,8.61
2023-02-11T12:49:05.502Z,8.62
2023-02-11T12:51:39.522Z,8.66
2023-02-11T12:54:15.425Z,8.67
2023-02-11T12:56:45.443Z,8.69
2023-02-11T12:59:14.543Z,8.72
2023-02-11T13:01:42.244Z,8.74
2023-02-11T13:04:13.061Z,8.76
2023-02-11T13:06:43.494Z,8.75
2023-02-11T13:09:12.938Z,8.69
2023-02-11T13:11:40.758Z,8.74
2023-02-11T13:14:09.589Z,8.79
2023-02-11T13:16:36.623Z,8.85
2023-02-11T13:19:07.611Z,8.83
2023-02-11T13:21:38.215Z,8.93
2023-02-11T13:24:13.056Z,8.91
2023-02-11T13:26:42.662Z,8.92
2023-02-11T13:29:15.418Z,8.98
2023-02-11T13:31:41.832Z,8.98
2023-02-11T13:34:22.934Z,9.00
2023-02-11T13:36:53.976Z,9.06
2023-02-11T13:39:22.030Z,9.00
2023-02-11T13:41:50.338Z,9.04
2023-02-11T13:44:23.347Z,9.02
2023-02-11T13:46:51.086Z,9.13
2023-02-11T13:49:19.322Z,9.15
2023-02-11T13:51:45.658Z,9.14
2023-02-11T13:54:20.806Z,9.15
2023-02-11T13:57:08.425Z,9.19
2023-02-11T13:59:45.109Z,9.17
2023-02-11T14:02:21.902Z,9.19
2023-02-11T14:05:19.072Z,9.20
2023-02-11T14:08:00.292Z,9.26
2023-02-11T14:10:45.540Z,9.26
2023-02-11T14:13:21.904Z,9.27
2023-02-11T14:15:48.223Z,9.31
2023-02-11T14:18:36.804Z,9.32
2023-02-11T14:21:10.448Z,9.36
2023-02-11T14:23:36.764Z,9.38
2023-02-11T14:26:24.134Z,9.33
2023-02-11T14:28:54.161Z,9.30
2023-02-11T14:31:22.744Z,9.32
2023-02-11T14:34:03.959Z,9.36
2023-02-11T14:36:45.136Z,9.37
2023-02-11T14:39:18.184Z,9.35
2023-02-11T14:41:45.968Z,9.34
2023-02-11T14:44:16.030Z,9.32
2023-02-11T14:46:44.009Z,9.31
2023-02-11T14:49:16.583Z,9.31
2023-02-11T14:51:44.038Z,9.29
2023-02-11T14:54:12.625Z,9.33
2023-02-11T14:56:39.138Z,9.24
2023-02-11T14:59:16.632Z,9.31
2023-02-11T15:01:45.463Z,9.26
2023-02-11T15:04:22.048Z,9.27
2023-02-11T15:06:48.593Z,9.26
2023-02-11T15:09:16.863Z,9.23
2023-02-11T15:11:44.969Z,9.22
2023-02-11T15:14:16.604Z,9.22
2023-02-11T15:16:45.266Z,9.23
2023-02-11T15:19:20.032Z,9.21
2023-02-11T15:21:46.483Z,9.20
2023-02-11T15:24:21.827Z,9.17
2023-02-11T15:26:55.596Z,9.10
2023-02-11T15:29:23.955Z,9.10
2023-02-11T15:32:03.776Z,9.10
2023-02-11T15:34:32.009Z,9.13
2023-02-11T15:36:58.394Z,9.06
2023-02-11T15:39:30.224Z,9.06
2023-02-11T15:41:56.542Z,9.04
2023-02-11T15:44:30.094Z,9.04
2023-02-11T15:46:56.416Z,9.06
2023-02-11T15:49:24.833Z,9.00
2023-02-11T15:51:52.242Z,9.01
2023-02-11T15:54:19.636Z,9.00
2023-02-11T15:56:47.883Z,8.96
2023-02-11T15:59:16.086Z,8.97
2023-02-11T16:01:42.691Z,8.96
2023-02-11T16:04:16.114Z,8.92
2023-02-11T16:06:44.023Z,8.93
2023-02-11T16:09:22.897Z,8.92
2023-02-11T16:11:56.314Z,8.84
2023-02-11T16:14:23.425Z,8.87
2023-02-11T16:16:50.761Z,8.86
2023-02-11T16:19:18.426Z,8.79
2023-02-11T16:21:46.398Z,8.78
2023-02-11T16:24:17.958Z,8.77
2023-02-11T16:26:47.679Z,8.73
2023-02-11T16:29:15.153Z,8.73
2023-02-11T16:31:42.421Z,8.68
2023-02-11T16:34:13.739Z,8.67
2023-02-11T16:36:40.149Z,8.68
2023-02-11T16:39:07.861Z,8.69
2023-02-11T16:41:34.212Z,8.66
2023-02-11T16:44:00.559Z,8.60
2023-02-11T16:46:26.933Z,8.58
2023-02-11T16:48:53.636Z,8.56
2023-02-11T16:51:20.200Z,8.57
2023-02-11T16:53:46.520Z,8.53
2023-02-11T16:56:15.967Z,8.51
2023-02-11T16:58:42.277Z,8.48
2023-02-11T17:01:08.840Z,8.47
2023-02-11T17:03:36.693Z,8.47
2023-02-11T17:06:03.730Z,8.45
2023-02-11T17:08:30.126Z,8.45
2023-02-11T17:10:56.461Z,8.41
2023-02-11T17:13:24.178Z,8.43
2023-02-11T17:15:50.933Z,8.42
2023-02-11T17:18:17.410Z,8.38
2023-02-11T17:20:43.713Z,8.40
2023-02-11T17:23:10.013Z,8.39
2023-02-11T17:25:36.358Z,8.36
2023-02-11T17:28:02.817Z,8.37
2023-02-11T17:30:30.558Z,8.34
2023-02-11T17:32:56.882Z,8.34
2023-02-11T17:35:23.252Z,8.34
2023-02-11T17:37:49.598Z,8.32
2023-02-11T17:40:16.155Z,8.32
2023-02-11T17:42:42.484Z,8.30
2023-02-11T17:45:09.300Z,8.29
2023-02-11T17:47:37.063Z,8.29
2023-02-11T17:50:03.880Z,8.29
2023-02-11T17:52:30.174Z,8.29
2023-02-11T17:54:56.543Z,8.27
2023-02-11T17:57:22.933Z,8.28
2023-02-11T17:59:49.257Z,8.29
2023-02-11T18:02:15.569Z,8.28
2023-02-11T18:04:43.288Z,8.27
2023-02-11T18:07:09.696Z,8.28
2023-02-11T18:09:36.658Z,8.26
2023-02-11T18:12:02.989Z,8.25
2023-02-11T18:14:29.301Z,8.26
2023-02-11T18:16:55.762Z,8.25
2023-02-11T18:19:22.159Z,8.24
2023-02-11T18:21:49.826Z,8.23
2023-02-11T18:24:16.489Z,8.22
2023-02-11T18:26:43.271Z,8.21
2023-02-11T18:29:09.605Z,8.20
2023-02-11T18:31:35.983Z,8.20
2023-02-11T18:34:02.489Z,8.20
2023-02-11T18:36:28.797Z,8.19
2023-02-11T18:38:56.500Z,8.18
2023-02-11T18:41:22.830Z,8.18
2023-02-11T18:43:49.266Z,8.17
2023-02-11T18:46:16.083Z,8.17
2023-02-11T18:48:42.774Z,8.17
2023-02-11T18:51:09.792Z,8.17
2023-02-11T18:53:36.194Z,8.18
2023-02-11T18:56:07.769Z,8.15
2023-02-11T18:58:34.078Z,8.14
2023-02-11T19:01:00.362Z,8.12
2023-02-11T19:03:26.693Z,8.13
2023-02-11T19:05:53.353Z,8.12
2023-02-11T19:08:19.889Z,8.12
2023-02-11T19:10:46.936Z,8.13
2023-02-11T19:13:14.771Z,8.12
2023-02-11T19:15:41.346Z,8.11
2023-02-11T19:18:07.698Z,8.12
2023-02-11T19:20:34.299Z,8.11
2023-02-11T19:23:00.610Z,8.12
2023-02-11T19:25:26.998Z,8.10
2023-02-11T19:27:53.309Z,8.10
2023-02-11T19:30:21.201Z,8.08
2023-02-11T19:32:47.498Z,8.09
2023-02-11T19:35:13.818Z,8.10
2023-02-11T19:37:40.104Z,8.09
2023-02-11T19:40:06.994Z,8.10
2023-02-11T19:42:33.325Z,8.10
2023-02-11T19:44:59.605Z,8.08
2023-02-11T19:47:27.271Z,8.09
2023-02-11T19:49:53.609Z,8.08
2023-02-11T19:52:20.114Z,8.08
2023-02-11T19:54:46.500Z,8.06
2023-02-11T19:57:12.832Z,8.05
2023-02-11T19:59:39.236Z,8.05
2023-02-11T20:02:05.594Z,8.05
2023-02-11T20:04:33.245Z,8.03
2023-02-11T20:06:59.566Z,8.03
2023-02-11T20:09:25.846Z,8.00
2023-02-11T20:11:52.172Z,7.99
2023-02-11T20:14:18.517Z,7.97
2023-02-11T20:16:49.172Z,7.96
2023-02-11T20:19:16.974Z,7.96
2023-02-11T20:21:46.792Z,7.95
2023-02-11T20:24:13.914Z,7.98
2023-02-11T20:26:40.394Z,7.97
2023-02-11T20:29:06.948Z,7.98
2023-02-11T20:31:33.687Z,7.98
2023-02-11T20:34:00.618Z,7.98
2023-02-11T20:36:27.802Z,7.98
2023-02-11T20:38:55.511Z,7.96
2023-02-11T20:41:22.898Z,7.97
2023-02-11T20:43:49.862Z,7.99
2023-02-11T20:46:17.099Z,7.97
2023-02-11T20:48:43.703Z,7.97
2023-02-11T20:51:10.896Z,7.96
2023-02-11T20:53:38.008Z,7.96
2023-02-11T20:56:06.720Z,7.96
2023-02-11T20:58:33.069Z,7.97
2023-02-11T21:01:06.232Z,7.96
2023-02-11T21:03:32.528Z,7.96
2023-02-11T21:05:58.972Z,7.94
2023-02-11T21:08:25.302Z,7.93
2023-02-11T21:10:51.945Z,7.93
2023-02-11T21:13:21.445Z,7.92
2023-02-11T21:15:47.793Z,7.93
2023-02-11T21:18:14.139Z,7.91
2023-02-11T21:20:43.027Z,7.92
2023-02-11T21:23:09.328Z,7.93
2023-02-11T21:25:35.597Z,7.92
2023-02-11T21:28:02.038Z,7.91
2023-02-11T21:30:29.811Z,7.90
2023-02-11T21:32:57.639Z,7.90
2023-02-11T21:35:23.933Z,7.89
2023-02-11T21:37:50.241Z,7.89
2023-02-11T21:40:16.838Z,7.89
2023-02-11T21:42:43.175Z,7.90
2023-02-11T21:45:09.619Z,7.88
2023-02-11T21:47:37.301Z,7.88
2023-02-11T21:50:03.700Z,7.88
2023-02-11T21:52:30.000Z,7.87
2023-02-11T21:54:56.283Z,7.87
2023-02-11T21:57:22.618Z,7.86
2023-02-11T21:59:48.914Z,7.85
2023-02-11T22:02:15.227Z,7.81
2023-02-11T22:04:42.940Z,7.81
2023-02-11T22:07:09.382Z,7.79
2023-02-11T22:09:38.253Z,7.79
2023-02-11T22:12:04.921Z,7.78
2023-02-11T22:14:32.375Z,7.77
2023-02-11T22:16:58.828Z,7.76
2023-02-11T22:19:25.151Z,7.77
2023-02-11T22:21:52.792Z,7.76
2023-02-11T22:24:19.101Z,7.76
2023-02-11T22:26:45.488Z,7.77
2023-02-11T22:29:11.815Z,7.77
2023-02-11T22:31:38.632Z,7.77
2023-02-11T22:34:05.436Z,7.80
2023-02-11T22:36:32.829Z,7.78
2023-02-11T22:39:01.486Z,7.76
2023-02-11T22:41:28.204Z,7.73
2023-02-11T22:43:54.538Z,7.73
2023-02-11T22:46:21.172Z,7.73
2023-02-11T22:48:47.986Z,7.76
2023-02-11T22:51:15.587Z,7.73
2023-02-11T22:53:41.963Z,7.68
2023-02-11T22:56:11.367Z,7.65
2023-02-11T22:58:39.047Z,7.66
2023-02-11T23:01:05.488Z,7.66
2023-02-11T23:03:32.316Z,7.65
2023-02-11T23:05:59.330Z,7.65
2023-02-11T23:08:26.221Z,7.65
2023-02-11T23:10:52.566Z,7.66
2023-02-11T23:13:20.264Z,7.65
2023-02-11T23:15:46.929Z,7.65
2023-02-11T23:18:13.915Z,7.65
2023-02-11T23:20:41.257Z,7.65
2023-02-11T23:23:07.556Z,7.65
2023-02-11T23:25:34.116Z,7.65
2023-02-11T23:28:00.689Z,7.65
2023-02-11T23:30:28.637Z,7.65
2023-02-11T23:32:54.986Z,7.66
2023-02-11T23:35:21.310Z,7.65
2023-02-11T23:37:48.007Z,7.65
2023-02-11T23:40:14.491Z,7.64
2023-02-11T23:42:40.816Z,7.63
2023-02-11T23:45:07.683Z,7.63
2023-02-11T23:47:35.401Z,7.60
2023-02-11T23:50:01.729Z,7.60
2023-02-11T23:52:28.006Z,7.60
2023-02-11T23:54:54.308Z,7.57
2023-02-11T23:57:20.592Z,7.56
2023-02-11T23:59:48.306Z,7.56
